createdAt,value
2017-10-02T00:00:29.261Z,1014.73
2017-10-02T00:01:38.094Z,1014.73
2017-10-02T00:02:46.927Z,1014.71
2017-10-02T00:03:55.759Z,1014.68
2017-10-02T00:05:04.592Z,1014.64
2017-10-02T00:06:13.575Z,1014.63
2017-10-02T00:07:22.407Z,1014.67
2017-10-02T00:08:31.246Z,1014.64
2017-10-02T00:09:40.078Z,1014.63
2017-10-02T00:10:48.913Z,1014.67
2017-10-02T00:11:57.747Z,1014.63
2017-10-02T00:13:06.580Z,1014.62
2017-10-02T00:14:15.743Z,1014.65
2017-10-02T00:15:24.575Z,1014.64
2017-10-02T00:16:33.408Z,1014.59
2017-10-02T00:17:42.337Z,1014.55
2017-10-02T00:18:51.171Z,1014.59
2017-10-02T00:20:00.004Z,1014.58
2017-10-02T00:21:08.840Z,1014.59
2017-10-02T00:22:17.672Z,1014.53
2017-10-02T00:23:26.607Z,1014.49
2017-10-02T00:24:35.767Z,1014.46
2017-10-02T00:25:44.599Z,1014.43
2017-10-02T00:26:53.434Z,1014.44
2017-10-02T00:28:02.266Z,1014.45
2017-10-02T00:29:11.448Z,1014.44
2017-10-02T00:30:20.282Z,1014.37
2017-10-02T00:31:29.122Z,1014.34
2017-10-02T00:32:37.949Z,1014.32
2017-10-02T00:33:47.111Z,1014.33
2017-10-02T00:34:55.994Z,1014.3
2017-10-02T00:36:04.825Z,1014.28
2017-10-02T00:37:13.659Z,1014.2
2017-10-02T00:38:22.492Z,1014.21
2017-10-02T00:39:31.326Z,1014.23
2017-10-02T00:40:40.211Z,1014.2
2017-10-02T00:41:49.046Z,1014.17
2017-10-02T00:42:57.877Z,1014.06
2017-10-02T00:44:06.712Z,1014.1
2017-10-02T00:45:15.545Z,1014.02
2017-10-02T00:46:24.528Z,1014.02
2017-10-02T00:47:33.361Z,1014.04
2017-10-02T00:48:42.196Z,1014.04
2017-10-02T00:49:51.363Z,1013.92
2017-10-02T00:51:00.552Z,1013.92
2017-10-02T00:52:09.433Z,1013.91
2017-10-02T00:53:18.268Z,1013.78
2017-10-02T00:54:27.100Z,1013.78
2017-10-02T00:55:35.933Z,1013.73
2017-10-02T00:56:45.126Z,1013.65
2017-10-02T00:57:54.258Z,1013.65
2017-10-02T00:59:03.091Z,1013.57
2017-10-02T01:00:12.256Z,1013.54
2017-10-02T01:01:21.089Z,1013.49
2017-10-02T01:02:29.920Z,1013.4
2017-10-02T01:03:39.235Z,1013.38
2017-10-02T01:04:48.065Z,1013.31
2017-10-02T01:05:56.898Z,1013.34
2017-10-02T01:07:05.731Z,1013.27
2017-10-02T01:08:14.563Z,1013.23
2017-10-02T01:09:23.696Z,1013.21
2017-10-02T01:10:32.578Z,1013.14
2017-10-02T01:11:41.411Z,1013.17
2017-10-02T01:12:50.244Z,1013.12
2017-10-02T01:13:59.409Z,1013.11
2017-10-02T01:15:08.391Z,1013.11
2017-10-02T01:16:17.223Z,1013.11
2017-10-02T01:17:26.058Z,1013.08
2017-10-02T01:18:34.888Z,1013.05
2017-10-02T01:19:43.718Z,1013.08
2017-10-02T01:20:52.851Z,1013.08
2017-10-02T01:22:02.016Z,1013.04
2017-10-02T01:23:10.846Z,1013.08
2017-10-02T01:24:20.006Z,1013.03
2017-10-02T01:25:28.838Z,1013.05
2017-10-02T01:26:37.969Z,1013.01
2017-10-02T01:27:46.802Z,1013.01
2017-10-02T01:28:55.962Z,1012.97
2017-10-02T01:30:04.797Z,1012.98
2017-10-02T01:31:13.630Z,1013.05
2017-10-02T01:32:22.763Z,1013.07
2017-10-02T01:33:31.594Z,1013.07
2017-10-02T01:34:40.428Z,1013.08
2017-10-02T01:35:49.263Z,1013.13
2017-10-02T01:36:58.097Z,1013.12
2017-10-02T01:38:06.979Z,1013.11
2017-10-02T01:39:16.141Z,1013.04
2017-10-02T01:40:24.976Z,1013.08
2017-10-02T01:41:33.809Z,1013.08
2017-10-02T01:42:42.642Z,1013.07
2017-10-02T01:43:51.574Z,1013.08
2017-10-02T01:45:00.408Z,1013.14
2017-10-02T01:46:09.241Z,1013.14
2017-10-02T01:47:18.076Z,1013.17
2017-10-02T01:48:26.911Z,1013.24
2017-10-02T01:49:35.994Z,1013.18
2017-10-02T01:50:44.826Z,1013.27
2017-10-02T01:51:53.659Z,1013.26
2017-10-02T01:53:02.491Z,1013.21
2017-10-02T01:54:11.320Z,1013.2
2017-10-02T01:55:20.254Z,1013.25
2017-10-02T01:56:29.084Z,1013.23
2017-10-02T01:57:37.916Z,1013.22
2017-10-02T01:58:46.750Z,1013.26
2017-10-02T01:59:55.583Z,1013.15
2017-10-02T02:01:04.567Z,1013.09
2017-10-02T02:02:13.404Z,1013.08
2017-10-02T02:03:22.236Z,1013.09
2017-10-02T02:04:31.070Z,1013.03
2017-10-02T02:05:40.236Z,1013.06
2017-10-02T02:06:49.167Z,1013.04
2017-10-02T02:07:58.002Z,1013.06
2017-10-02T02:09:07.178Z,1013.01
2017-10-02T02:10:16.008Z,1013.03
2017-10-02T02:11:24.839Z,1012.94
2017-10-02T02:12:33.673Z,1012.97
2017-10-02T02:13:42.507Z,1012.97
2017-10-02T02:14:51.341Z,1012.92
2017-10-02T02:16:00.172Z,1012.9
2017-10-02T02:17:09.005Z,1012.82
2017-10-02T02:18:17.940Z,1012.82
2017-10-02T02:19:26.773Z,1012.83
2017-10-02T02:20:35.607Z,1012.79
2017-10-02T02:21:44.444Z,1012.82
2017-10-02T02:22:53.275Z,1012.79
2017-10-02T02:24:02.589Z,1012.79
2017-10-02T02:25:11.423Z,1012.82
2017-10-02T02:26:20.586Z,1012.84
2017-10-02T02:27:29.418Z,1012.8
2017-10-02T02:28:38.250Z,1012.77
2017-10-02T02:29:47.712Z,1012.79
2017-10-02T02:30:56.543Z,1012.78
2017-10-02T02:32:06.050Z,1012.76
2017-10-02T02:33:14.881Z,1012.75
2017-10-02T02:34:23.716Z,1012.74
2017-10-02T02:35:32.547Z,1012.75
2017-10-02T02:36:41.384Z,1012.67
2017-10-02T02:37:50.214Z,1012.67
2017-10-02T02:38:59.049Z,1012.64
2017-10-02T02:40:07.883Z,1012.62
2017-10-02T02:41:16.717Z,1012.54
2017-10-02T02:42:25.552Z,1012.51
2017-10-02T02:43:34.387Z,1012.49
2017-10-02T02:44:43.218Z,1012.47
2017-10-02T02:45:52.052Z,1012.49
2017-10-02T02:47:01.038Z,1012.5
2017-10-02T02:48:09.872Z,1012.47
2017-10-02T02:49:18.706Z,1012.45
2017-10-02T02:50:27.539Z,1012.41
2017-10-02T02:51:36.370Z,1012.4
2017-10-02T02:52:45.253Z,1012.44
2017-10-02T02:53:54.086Z,1012.57
2017-10-02T02:55:02.920Z,1012.54
2017-10-02T02:56:12.086Z,1012.56
2017-10-02T02:57:20.918Z,1012.49
2017-10-02T02:58:29.998Z,1012.47
2017-10-02T02:59:38.834Z,1012.51
2017-10-02T03:00:47.667Z,1012.52
2017-10-02T03:01:56.500Z,1012.55
2017-10-02T03:03:05.332Z,1012.49
2017-10-02T03:04:14.167Z,1012.53
2017-10-02T03:05:22.999Z,1012.5
2017-10-02T03:06:31.831Z,1012.51
2017-10-02T03:07:40.997Z,1012.49
2017-10-02T03:08:49.830Z,1012.5
2017-10-02T03:09:58.714Z,1012.47
2017-10-02T03:11:07.546Z,1012.44
2017-10-02T03:12:16.377Z,1012.42
2017-10-02T03:13:25.211Z,1012.39
2017-10-02T03:14:34.042Z,1012.37
2017-10-02T03:15:42.875Z,1012.4
2017-10-02T03:16:51.707Z,1012.41
2017-10-02T03:18:00.539Z,1012.34
2017-10-02T03:19:09.373Z,1012.27
2017-10-02T03:20:18.205Z,1012.29
2017-10-02T03:21:27.137Z,1012.31
2017-10-02T03:22:35.972Z,1012.27
2017-10-02T03:23:45.140Z,1012.25
2017-10-02T03:24:53.972Z,1012.27
2017-10-02T03:26:02.805Z,1012.27
2017-10-02T03:27:11.738Z,1012.21
2017-10-02T03:28:20.575Z,1012.17
2017-10-02T03:29:29.405Z,1012.11
2017-10-02T03:30:38.237Z,1012.13
2017-10-02T03:31:47.754Z,1012.09
2017-10-02T03:32:56.988Z,1012.11
2017-10-02T03:34:05.822Z,1012.05
2017-10-02T03:35:14.654Z,1012.02
2017-10-02T03:36:23.486Z,1012.03
2017-10-02T03:37:32.318Z,1011.99
2017-10-02T03:38:41.452Z,1011.95
2017-10-02T03:39:50.285Z,1011.95
2017-10-02T03:40:59.119Z,1011.92
2017-10-02T03:42:07.949Z,1011.87
2017-10-02T03:43:16.782Z,1011.82
2017-10-02T03:44:25.715Z,1011.78
2017-10-02T03:45:34.548Z,1011.77
2017-10-02T03:46:43.383Z,1011.71
2017-10-02T03:47:52.215Z,1011.74
2017-10-02T03:49:01.049Z,1011.72
2017-10-02T03:50:10.133Z,1011.65
2017-10-02T03:51:18.963Z,1011.63
2017-10-02T03:52:27.795Z,1011.58
2017-10-02T03:53:36.958Z,1011.59
2017-10-02T03:54:45.790Z,1011.6
2017-10-02T03:55:54.623Z,1011.6
2017-10-02T03:57:03.784Z,1011.54
2017-10-02T03:58:12.618Z,1011.54
2017-10-02T03:59:21.450Z,1011.56
2017-10-02T04:00:30.285Z,1011.5
2017-10-02T04:01:39.168Z,1011.49
2017-10-02T04:02:48.001Z,1011.49
2017-10-02T04:03:56.834Z,1011.45
2017-10-02T04:05:05.666Z,1011.49
2017-10-02T04:06:14.499Z,1011.4
2017-10-02T04:07:23.580Z,1011.41
2017-10-02T04:08:32.410Z,1011.36
2017-10-02T04:09:41.243Z,1011.35
2017-10-02T04:10:50.406Z,1011.32
2017-10-02T04:11:59.236Z,1011.34
2017-10-02T04:13:08.165Z,1011.28
2017-10-02T04:14:16.997Z,1011.29
2017-10-02T04:15:25.829Z,1011.27
2017-10-02T04:16:34.660Z,1011.23
2017-10-02T04:17:43.826Z,1011.23
2017-10-02T04:18:52.713Z,1011.19
2017-10-02T04:20:01.544Z,1011.21
2017-10-02T04:21:10.379Z,1011.19
2017-10-02T04:22:19.210Z,1011.15
2017-10-02T04:23:28.044Z,1011.14
2017-10-02T04:24:36.977Z,1011.13
2017-10-02T04:25:45.808Z,1011.14
2017-10-02T04:26:54.639Z,1011.13
2017-10-02T04:28:03.472Z,1011.18
2017-10-02T04:29:12.973Z,1011.18
2017-10-02T04:30:22.191Z,1011.12
2017-10-02T04:31:31.021Z,1011.12
2017-10-02T04:32:39.853Z,1011.14
2017-10-02T04:33:49.013Z,1011.12
2017-10-02T04:34:57.844Z,1011.11
2017-10-02T04:36:06.823Z,1011.14
2017-10-02T04:37:15.656Z,1011.11
2017-10-02T04:38:24.487Z,1011.04
2017-10-02T04:39:33.320Z,1011.05
2017-10-02T04:40:42.152Z,1011.04
2017-10-02T04:41:51.084Z,1011.08
2017-10-02T04:42:59.915Z,1011.01
2017-10-02T04:44:08.745Z,1011.05
2017-10-02T04:45:17.578Z,1010.97
2017-10-02T04:46:26.409Z,1010.96
2017-10-02T04:47:35.393Z,1010.98
2017-10-02T04:48:44.224Z,1011.01
2017-10-02T04:49:53.057Z,1010.96
2017-10-02T04:51:01.887Z,1010.96
2017-10-02T04:52:10.720Z,1010.94
2017-10-02T04:53:19.600Z,1010.92
2017-10-02T04:54:28.432Z,1010.86
2017-10-02T04:55:37.264Z,1010.86
2017-10-02T04:56:46.106Z,1010.87
2017-10-02T04:57:54.938Z,1010.85
2017-10-02T04:59:04.020Z,1010.82
2017-10-02T05:00:12.851Z,1010.78
2017-10-02T05:01:21.687Z,1010.75
2017-10-02T05:02:30.861Z,1010.74
2017-10-02T05:03:39.693Z,1010.71
2017-10-02T05:04:48.776Z,1010.65
2017-10-02T05:05:57.609Z,1010.79
2017-10-02T05:07:06.439Z,1010.69
2017-10-02T05:08:15.268Z,1010.69
2017-10-02T05:09:24.101Z,1010.7
2017-10-02T05:10:33.084Z,1010.65
2017-10-02T05:11:41.917Z,1010.71
2017-10-02T05:12:50.751Z,1010.66
2017-10-02T05:13:59.583Z,1010.65
2017-10-02T05:15:08.416Z,1010.65
2017-10-02T05:16:17.248Z,1010.63
2017-10-02T05:17:26.082Z,1010.61
2017-10-02T05:18:34.914Z,1010.63
2017-10-02T05:19:43.748Z,1010.53
2017-10-02T05:20:52.911Z,1010.54
2017-10-02T05:22:01.793Z,1010.54
2017-10-02T05:23:10.627Z,1010.43
2017-10-02T05:24:19.462Z,1010.51
2017-10-02T05:25:28.293Z,1010.48
2017-10-02T05:26:37.125Z,1010.52
2017-10-02T05:27:45.957Z,1010.49
2017-10-02T05:28:54.789Z,1010.37
2017-10-02T05:30:03.624Z,1010.37
2017-10-02T05:31:12.458Z,1010.43
2017-10-02T05:32:21.618Z,1010.4
2017-10-02T05:33:30.653Z,1010.38
2017-10-02T05:34:39.486Z,1010.33
2017-10-02T05:35:48.320Z,1010.36
2017-10-02T05:36:57.153Z,1010.26
2017-10-02T05:38:06.317Z,1010.24
2017-10-02T05:39:15.199Z,1010.28
2017-10-02T05:40:24.030Z,1010.18
2017-10-02T05:41:32.863Z,1010.12
2017-10-02T05:42:41.695Z,1010.09
2017-10-02T05:43:50.528Z,1010.02
2017-10-02T05:44:59.412Z,1009.97
2017-10-02T05:46:08.245Z,1009.96
2017-10-02T05:47:17.078Z,1010.06
2017-10-02T05:48:25.911Z,1010.14
2017-10-02T05:49:34.744Z,1010.2
2017-10-02T05:50:43.677Z,1010.06
2017-10-02T05:51:52.510Z,1010.09
2017-10-02T05:53:01.346Z,1010.09
2017-10-02T05:54:10.184Z,1010
2017-10-02T05:55:19.346Z,1010.09
2017-10-02T05:56:28.228Z,1010.04
2017-10-02T05:57:37.060Z,1009.98
2017-10-02T05:58:45.892Z,1009.99
2017-10-02T05:59:54.727Z,1009.92
2017-10-02T06:01:03.560Z,1009.99
2017-10-02T06:02:12.447Z,1010
2017-10-02T06:03:21.609Z,1009.98
2017-10-02T06:04:30.441Z,1010.01
2017-10-02T06:05:39.277Z,1009.96
2017-10-02T06:06:48.436Z,1009.92
2017-10-02T06:07:57.422Z,1009.97
2017-10-02T06:09:06.585Z,1009.99
2017-10-02T06:10:15.418Z,1009.99
2017-10-02T06:11:24.253Z,1010
2017-10-02T06:12:33.083Z,1009.9
2017-10-02T06:13:42.296Z,1009.93
2017-10-02T06:14:51.128Z,1009.85
2017-10-02T06:16:00.290Z,1009.86
2017-10-02T06:17:09.127Z,1009.84
2017-10-02T06:18:17.962Z,1009.83
2017-10-02T06:19:26.949Z,1009.79
2017-10-02T06:20:35.781Z,1009.84
2017-10-02T06:21:44.617Z,1009.86
2017-10-02T06:22:53.786Z,1009.78
2017-10-02T06:24:02.619Z,1009.81
2017-10-02T06:25:11.604Z,1009.81
2017-10-02T06:26:20.440Z,1009.82
2017-10-02T06:27:29.273Z,1009.79
2017-10-02T06:28:38.107Z,1009.76
2017-10-02T06:29:46.941Z,1009.78
2017-10-02T06:30:55.823Z,1009.72
2017-10-02T06:32:04.657Z,1009.69
2017-10-02T06:33:13.821Z,1009.71
2017-10-02T06:34:22.655Z,1009.75
2017-10-02T06:35:31.487Z,1009.75
2017-10-02T06:36:40.749Z,1009.69
2017-10-02T06:37:49.581Z,1009.72
2017-10-02T06:38:58.411Z,1009.68
2017-10-02T06:40:07.245Z,1009.7
2017-10-02T06:41:16.078Z,1009.73
2017-10-02T06:42:24.963Z,1009.74
2017-10-02T06:43:33.794Z,1009.78
2017-10-02T06:44:42.630Z,1009.7
2017-10-02T06:45:51.462Z,1009.73
2017-10-02T06:47:00.295Z,1009.68
2017-10-02T06:48:09.230Z,1009.66
2017-10-02T06:49:18.065Z,1009.68
2017-10-02T06:50:26.898Z,1009.63
2017-10-02T06:51:35.730Z,1009.64
2017-10-02T06:52:44.568Z,1009.61
2017-10-02T06:53:53.447Z,1009.68
2017-10-02T06:55:02.281Z,1009.67
2017-10-02T06:56:11.114Z,1009.69
2017-10-02T06:57:19.949Z,1009.67
2017-10-02T06:58:28.783Z,1009.65
2017-10-02T06:59:37.615Z,1009.67
2017-10-02T07:00:46.448Z,1009.68
2017-10-02T07:01:55.280Z,1009.64
2017-10-02T07:03:04.116Z,1009.64
2017-10-02T07:04:13.282Z,1009.64
2017-10-02T07:05:22.545Z,1009.63
2017-10-02T07:06:31.380Z,1009.66
2017-10-02T07:07:40.222Z,1009.72
2017-10-02T07:08:49.050Z,1009.62
2017-10-02T07:09:57.889Z,1009.66
2017-10-02T07:11:06.865Z,1009.66
2017-10-02T07:12:15.724Z,1009.67
2017-10-02T07:13:24.536Z,1009.68
2017-10-02T07:14:33.373Z,1009.66
2017-10-02T07:15:42.209Z,1009.67
2017-10-02T07:16:51.143Z,1009.69
2017-10-02T07:17:59.975Z,1009.7
2017-10-02T07:19:09.141Z,1009.68
2017-10-02T07:20:18.018Z,1009.7
2017-10-02T07:21:26.853Z,1009.65
2017-10-02T07:22:35.838Z,1009.65
2017-10-02T07:23:44.672Z,1009.69
2017-10-02T07:24:53.506Z,1009.72
2017-10-02T07:26:02.339Z,1009.47
2017-10-02T07:27:11.172Z,1009.51
2017-10-02T07:28:20.305Z,1009.56
2017-10-02T07:29:29.139Z,1009.58
2017-10-02T07:30:37.974Z,1009.53
2017-10-02T07:31:46.807Z,1009.57
2017-10-02T07:32:55.643Z,1009.47
2017-10-02T07:34:04.578Z,1009.5
2017-10-02T07:35:13.407Z,1009.48
2017-10-02T07:36:22.241Z,1009.45
2017-10-02T07:37:31.074Z,1009.53
2017-10-02T07:38:39.909Z,1009.49
2017-10-02T07:39:48.844Z,1009.43
2017-10-02T07:40:57.677Z,1009.43
2017-10-02T07:42:06.510Z,1009.38
2017-10-02T07:43:15.342Z,1009.36
2017-10-02T07:44:24.180Z,1009.37
2017-10-02T07:45:33.012Z,1009.41
2017-10-02T07:46:41.847Z,1009.4
2017-10-02T07:47:50.685Z,1009.45
2017-10-02T07:48:59.522Z,1009.49
2017-10-02T07:50:08.359Z,1009.49
2017-10-02T07:51:17.294Z,1009.47
2017-10-02T07:52:26.129Z,1009.51
2017-10-02T07:53:34.965Z,1009.48
2017-10-02T07:54:43.802Z,1009.5
2017-10-02T07:55:52.635Z,1009.5
2017-10-02T07:57:01.769Z,1009.51
2017-10-02T07:58:10.701Z,1009.54
2017-10-02T07:59:19.537Z,1009.43
2017-10-02T08:00:28.373Z,1009.48
2017-10-02T08:01:37.208Z,1009.48
2017-10-02T08:02:46.195Z,1009.45
2017-10-02T08:03:55.038Z,1009.43
2017-10-02T08:05:03.875Z,1009.35
2017-10-02T08:06:12.713Z,1009.35
2017-10-02T08:07:21.543Z,1009.32
2017-10-02T08:08:30.482Z,1009.37
2017-10-02T08:09:39.315Z,1009.41
2017-10-02T08:10:48.150Z,1009.33
2017-10-02T08:11:57.322Z,1009.38
2017-10-02T08:13:06.153Z,1009.39
2017-10-02T08:14:15.137Z,1009.42
2017-10-02T08:15:23.977Z,1009.43
2017-10-02T08:16:32.817Z,1009.44
2017-10-02T08:17:41.659Z,1009.39
2017-10-02T08:18:50.488Z,1009.41
2017-10-02T08:19:59.473Z,1009.42
2017-10-02T08:21:08.311Z,1009.43
2017-10-02T08:22:17.143Z,1009.44
2017-10-02T08:23:25.976Z,1009.48
2017-10-02T08:24:34.842Z,1009.41
2017-10-02T08:25:43.741Z,1009.44
2017-10-02T08:26:52.576Z,1009.4
2017-10-02T08:28:01.414Z,1009.34
2017-10-02T08:29:10.251Z,1009.45
2017-10-02T08:30:19.086Z,1009.38
2017-10-02T08:31:28.322Z,1009.39
2017-10-02T08:32:37.160Z,1009.4
2017-10-02T08:33:46.325Z,1009.39
2017-10-02T08:34:55.160Z,1009.39
2017-10-02T08:36:04.000Z,1009.44
2017-10-02T08:37:12.839Z,1009.48
2017-10-02T08:38:21.675Z,1009.51
2017-10-02T08:39:30.515Z,1009.43
2017-10-02T08:40:39.684Z,1009.48
2017-10-02T08:41:48.535Z,1009.41
2017-10-02T08:42:57.352Z,1009.41
2017-10-02T08:44:06.196Z,1009.45
2017-10-02T08:45:15.034Z,1009.4
2017-10-02T08:46:23.872Z,1009.35
2017-10-02T08:47:32.709Z,1009.33
2017-10-02T08:48:41.546Z,1009.36
2017-10-02T08:49:50.381Z,1009.33
2017-10-02T08:50:59.217Z,1009.38
2017-10-02T08:52:08.053Z,1009.37
2017-10-02T08:53:16.892Z,1009.42
2017-10-02T08:54:25.879Z,1009.49
2017-10-02T08:55:34.713Z,1009.49
2017-10-02T08:56:43.549Z,1009.52
2017-10-02T08:57:52.436Z,1009.48
2017-10-02T08:59:01.275Z,1009.56
2017-10-02T09:00:10.588Z,1009.57
2017-10-02T09:01:19.424Z,1009.57
2017-10-02T09:02:28.259Z,1009.51
2017-10-02T09:03:37.099Z,1009.51
2017-10-02T09:04:45.937Z,1009.51
2017-10-02T09:05:54.771Z,1009.51
2017-10-02T09:07:03.605Z,1009.44
2017-10-02T09:08:12.448Z,1009.37
2017-10-02T09:09:21.291Z,1009.4
2017-10-02T09:10:30.127Z,1009.41
2017-10-02T09:11:39.014Z,1009.37
2017-10-02T09:12:47.900Z,1009.38
2017-10-02T09:13:56.734Z,1009.41
2017-10-02T09:15:05.570Z,1009.35
2017-10-02T09:16:14.419Z,1009.32
2017-10-02T09:17:23.258Z,1009.3
2017-10-02T09:18:32.091Z,1009.31
2017-10-02T09:19:40.928Z,1009.34
2017-10-02T09:20:49.766Z,1009.41
2017-10-02T09:21:58.601Z,1009.42
2017-10-02T09:23:07.593Z,1009.31
2017-10-02T09:24:16.446Z,1009.36
2017-10-02T09:25:25.321Z,1009.25
2017-10-02T09:26:34.159Z,1009.31
2017-10-02T09:27:42.998Z,1009.28
2017-10-02T09:28:51.955Z,1009.2
2017-10-02T09:30:00.792Z,1009.24
2017-10-02T09:31:09.631Z,1009.2
2017-10-02T09:32:18.464Z,1009.22
2017-10-02T09:33:27.313Z,1009.17
2017-10-02T09:34:36.250Z,1009.21
2017-10-02T09:35:45.418Z,1009.21
2017-10-02T09:36:54.254Z,1009.26
2017-10-02T09:38:03.092Z,1009.25
2017-10-02T09:39:12.264Z,1009.16
2017-10-02T09:40:21.163Z,1009.21
2017-10-02T09:41:30.002Z,1009.26
2017-10-02T09:42:38.846Z,1009.25
2017-10-02T09:43:48.026Z,1009.22
2017-10-02T09:44:56.919Z,1009.26
2017-10-02T09:46:06.192Z,1009.21
2017-10-02T09:47:15.031Z,1009.22
2017-10-02T09:48:23.867Z,1009.27
2017-10-02T09:49:32.721Z,1009.19
2017-10-02T09:50:41.558Z,1009.16
2017-10-02T09:51:50.395Z,1009.19
2017-10-02T09:52:59.567Z,1009.15
2017-10-02T09:54:08.402Z,1009.2
2017-10-02T09:55:17.248Z,1009.2
2017-10-02T09:56:26.086Z,1009.24
2017-10-02T09:57:34.975Z,1009.28
2017-10-02T09:58:43.809Z,1009.2
2017-10-02T09:59:52.644Z,1009.19
2017-10-02T10:01:01.480Z,1009.21
2017-10-02T10:02:10.318Z,1009.23
2017-10-02T10:03:19.207Z,1009.22
2017-10-02T10:04:28.044Z,1009.27
2017-10-02T10:05:36.892Z,1009.25
2017-10-02T10:06:45.731Z,1009.28
2017-10-02T10:07:54.569Z,1009.32
2017-10-02T10:09:03.513Z,1009.3
2017-10-02T10:10:12.354Z,1009.29
2017-10-02T10:11:21.196Z,1009.34
2017-10-02T10:12:30.039Z,1009.29
2017-10-02T10:13:38.879Z,1009.35
2017-10-02T10:14:48.027Z,1009.45
2017-10-02T10:15:56.866Z,1009.36
2017-10-02T10:17:05.706Z,1009.44
2017-10-02T10:18:14.543Z,1009.36
2017-10-02T10:19:23.378Z,1009.32
2017-10-02T10:20:32.225Z,1009.41
2017-10-02T10:21:41.070Z,1009.38
2017-10-02T10:22:49.934Z,1009.39
2017-10-02T10:23:58.777Z,1009.39
2017-10-02T10:25:08.061Z,1009.4
2017-10-02T10:26:17.046Z,1009.42
2017-10-02T10:27:25.886Z,1009.34
2017-10-02T10:28:34.726Z,1009.35
2017-10-02T10:29:43.564Z,1009.33
2017-10-02T10:30:52.405Z,1009.37
2017-10-02T10:32:01.245Z,1009.38
2017-10-02T10:33:10.096Z,1009.4
2017-10-02T10:34:18.950Z,1009.42
2017-10-02T10:35:27.787Z,1009.38
2017-10-02T10:36:36.625Z,1009.39
2017-10-02T10:37:45.468Z,1009.45
2017-10-02T10:38:54.307Z,1009.41
2017-10-02T10:40:03.143Z,1009.4
2017-10-02T10:41:12.085Z,1009.41
2017-10-02T10:42:20.924Z,1009.34
2017-10-02T10:43:29.761Z,1009.41
2017-10-02T10:44:38.598Z,1009.39
2017-10-02T10:45:47.438Z,1009.39
2017-10-02T10:46:56.704Z,1009.32
2017-10-02T10:48:05.541Z,1009.3
2017-10-02T10:49:14.380Z,1009.39
2017-10-02T10:50:23.217Z,1009.4
2017-10-02T10:51:32.054Z,1009.39
2017-10-02T10:52:41.191Z,1009.44
2017-10-02T10:53:50.026Z,1009.45
2017-10-02T10:54:58.866Z,1009.36
2017-10-02T10:56:07.817Z,1009.39
2017-10-02T10:57:16.650Z,1009.48
2017-10-02T10:58:25.486Z,1009.51
2017-10-02T10:59:34.329Z,1009.49
2017-10-02T11:00:43.159Z,1009.46
2017-10-02T11:01:51.993Z,1009.53
2017-10-02T11:03:00.826Z,1009.52
2017-10-02T11:04:09.664Z,1009.57
2017-10-02T11:05:18.499Z,1009.5
2017-10-02T11:06:27.336Z,1009.48
2017-10-02T11:07:36.172Z,1009.49
2017-10-02T11:08:45.008Z,1009.52
2017-10-02T11:09:53.915Z,1009.57
2017-10-02T11:11:02.762Z,1009.51
2017-10-02T11:12:11.648Z,1009.52
2017-10-02T11:13:20.491Z,1009.55
2017-10-02T11:14:29.325Z,1009.48
2017-10-02T11:15:38.363Z,1009.47
2017-10-02T11:16:47.534Z,1009.5
2017-10-02T11:17:56.371Z,1009.49
2017-10-02T11:19:05.209Z,1009.54
2017-10-02T11:20:14.044Z,1009.54
2017-10-02T11:21:23.467Z,1009.48
2017-10-02T11:22:32.303Z,1009.4
2017-10-02T11:23:41.141Z,1009.4
2017-10-02T11:24:49.977Z,1009.4
2017-10-02T11:25:58.838Z,1009.31
2017-10-02T11:27:07.852Z,1009.35
2017-10-02T11:28:16.689Z,1009.37
2017-10-02T11:29:25.527Z,1009.33
2017-10-02T11:30:34.369Z,1009.33
2017-10-02T11:31:43.207Z,1009.37
2017-10-02T11:32:52.143Z,1009.49
2017-10-02T11:34:00.979Z,1009.59
2017-10-02T11:35:09.811Z,1009.37
2017-10-02T11:36:18.652Z,1009.35
2017-10-02T11:37:27.488Z,1009.38
2017-10-02T11:38:36.374Z,1009.32
2017-10-02T11:39:45.211Z,1009.35
2017-10-02T11:40:54.046Z,1009.34
2017-10-02T11:42:02.882Z,1009.4
2017-10-02T11:43:11.718Z,1009.32
2017-10-02T11:44:20.854Z,1009.3
2017-10-02T11:45:29.690Z,1009.3
2017-10-02T11:46:38.527Z,1009.33
2017-10-02T11:47:47.362Z,1009.32
2017-10-02T11:48:56.200Z,1009.29
2017-10-02T11:50:05.040Z,1009.39
2017-10-02T11:51:14.207Z,1009.36
2017-10-02T11:52:23.046Z,1009.32
2017-10-02T11:53:31.880Z,1009.36
2017-10-02T11:54:40.718Z,1009.41
2017-10-02T11:55:49.655Z,1009.44
2017-10-02T11:56:58.490Z,1009.4
2017-10-02T11:58:07.328Z,1009.45
2017-10-02T11:59:16.163Z,1009.43
2017-10-02T12:00:25.001Z,1009.42
2017-10-02T12:01:33.988Z,1009.38
2017-10-02T12:02:42.825Z,1009.42
2017-10-02T12:03:51.663Z,1009.36
2017-10-02T12:05:00.502Z,1009.36
2017-10-02T12:06:09.337Z,1009.39
2017-10-02T12:07:18.177Z,1009.39
2017-10-02T12:08:27.021Z,1009.41
2017-10-02T12:09:35.856Z,1009.38
2017-10-02T12:10:44.694Z,1009.36
2017-10-02T12:11:53.540Z,1009.36
2017-10-02T12:13:02.423Z,1009.45
2017-10-02T12:14:11.260Z,1009.52
2017-10-02T12:15:20.099Z,1009.57
2017-10-02T12:16:28.934Z,1009.56
2017-10-02T12:17:37.776Z,1009.55
2017-10-02T12:18:46.994Z,1009.49
2017-10-02T12:19:55.834Z,1009.5
2017-10-02T12:21:04.671Z,1009.53
2017-10-02T12:22:13.843Z,1009.5
2017-10-02T12:23:22.681Z,1009.47
2017-10-02T12:24:31.578Z,1009.45
2017-10-02T12:25:40.406Z,1009.44
2017-10-02T12:26:49.250Z,1009.5
2017-10-02T12:27:58.090Z,1009.38
2017-10-02T12:29:06.927Z,1009.39
2017-10-02T12:30:15.916Z,1009.38
2017-10-02T12:31:24.756Z,1009.32
2017-10-02T12:32:33.593Z,1009.32
2017-10-02T12:33:42.763Z,1009.35
2017-10-02T12:34:51.606Z,1009.36
2017-10-02T12:36:00.436Z,1009.39
2017-10-02T12:37:09.277Z,1009.39
2017-10-02T12:38:18.447Z,1009.3
2017-10-02T12:39:27.291Z,1009.29
2017-10-02T12:40:36.129Z,1009.32
2017-10-02T12:41:45.118Z,1009.31
2017-10-02T12:42:53.956Z,1009.36
2017-10-02T12:44:03.128Z,1009.47
2017-10-02T12:45:11.966Z,1009.43
2017-10-02T12:46:20.804Z,1009.42
2017-10-02T12:47:29.739Z,1009.41
2017-10-02T12:48:38.917Z,1009.41
2017-10-02T12:49:47.757Z,1009.48
2017-10-02T12:50:56.599Z,1009.55
2017-10-02T12:52:05.437Z,1009.51
2017-10-02T12:53:14.324Z,1009.56
2017-10-02T12:54:23.160Z,1009.52
2017-10-02T12:55:31.998Z,1009.46
2017-10-02T12:56:40.835Z,1009.46
2017-10-02T12:57:49.673Z,1009.47
2017-10-02T12:58:58.559Z,1009.45
2017-10-02T13:00:07.397Z,1009.48
2017-10-02T13:01:16.287Z,1009.5
2017-10-02T13:02:25.121Z,1009.48
2017-10-02T13:03:33.962Z,1009.54
2017-10-02T13:04:42.947Z,1009.55
2017-10-02T13:05:51.792Z,1009.49
2017-10-02T13:07:00.621Z,1009.42
2017-10-02T13:08:09.459Z,1009.43
2017-10-02T13:09:18.298Z,1009.43
2017-10-02T13:10:27.188Z,1009.45
2017-10-02T13:11:36.024Z,1009.45
2017-10-02T13:12:44.862Z,1009.39
2017-10-02T13:13:53.699Z,1009.37
2017-10-02T13:15:02.533Z,1009.42
2017-10-02T13:16:11.469Z,1009.42
2017-10-02T13:17:20.306Z,1009.42
2017-10-02T13:18:29.144Z,1009.42
2017-10-02T13:19:37.979Z,1009.5
2017-10-02T13:20:46.819Z,1009.39
2017-10-02T13:21:55.807Z,1009.34
2017-10-02T13:23:04.642Z,1009.29
2017-10-02T13:24:13.479Z,1009.37
2017-10-02T13:25:22.316Z,1009.32
2017-10-02T13:26:31.155Z,1009.36
2017-10-02T13:27:40.241Z,1009.44
2017-10-02T13:28:49.080Z,1009.39
2017-10-02T13:29:58.254Z,1009.4
2017-10-02T13:31:07.090Z,1009.28
2017-10-02T13:32:15.929Z,1009.25
2017-10-02T13:33:24.821Z,1009.27
2017-10-02T13:34:33.993Z,1009.3
2017-10-02T13:35:42.832Z,1009.33
2017-10-02T13:36:51.669Z,1009.17
2017-10-02T13:38:00.509Z,1009.13
2017-10-02T13:39:09.345Z,1009.14
2017-10-02T13:40:18.180Z,1009.19
2017-10-02T13:41:27.016Z,1009.27
2017-10-02T13:42:35.853Z,1009.32
2017-10-02T13:43:44.691Z,1009.26
2017-10-02T13:44:53.628Z,1009.26
2017-10-02T13:46:02.467Z,1009.15
2017-10-02T13:47:11.303Z,1009.22
2017-10-02T13:48:20.139Z,1009.24
2017-10-02T13:49:28.981Z,1009.21
2017-10-02T13:50:37.918Z,1009.13
2017-10-02T13:51:46.754Z,1009.26
2017-10-02T13:52:55.593Z,1009.2
2017-10-02T13:54:04.433Z,1009.16
2017-10-02T13:55:13.606Z,1009.12
2017-10-02T13:56:22.493Z,1009.1